createdAt,value
2019-06-20T00:02:01.379Z,6.67
2019-06-20T00:04:32.921Z,6.33
2019-06-20T00:07:04.094Z,6.60
2019-06-20T00:09:40.346Z,6.50
2019-06-20T00:12:11.894Z,6.20
2019-06-20T00:14:45.187Z,6.20
2019-06-20T00:17:17.655Z,6.40
2019-06-20T00:19:52.518Z,6.43
2019-06-20T00:22:28.631Z,6.50
2019-06-20T00:25:02.865Z,6.50
2019-06-20T00:27:34.415Z,6.53
2019-06-20T00:30:07.058Z,6.50
2019-06-20T00:32:38.263Z,6.73
2019-06-20T00:35:09.694Z,6.47
2019-06-20T00:37:42.168Z,6.63
2019-06-20T00:40:16.592Z,6.00
2019-06-20T00:42:48.045Z,6.57
2019-06-20T00:45:21.338Z,6.37
2019-06-20T00:47:54.939Z,6.10
2019-06-20T00:50:27.873Z,6.13
2019-06-20T00:52:58.772Z,6.50
2019-06-20T00:55:31.782Z,6.20
2019-06-20T00:58:05.040Z,6.00
2019-06-20T01:00:39.115Z,6.40
2019-06-20T01:03:17.466Z,6.63
2019-06-20T01:05:47.743Z,6.40
2019-06-20T01:08:18.850Z,6.13
2019-06-20T01:10:50.451Z,5.93
2019-06-20T01:13:33.528Z,6.10
2019-06-20T01:15:55.507Z,6.00
2019-06-20T01:18:29.549Z,6.00
2019-06-20T01:20:59.944Z,6.20
2019-06-20T01:23:32.759Z,6.30
2019-06-20T01:26:04.387Z,6.07
2019-06-20T01:28:37.194Z,6.40
2019-06-20T01:31:09.612Z,6.50
2019-06-20T01:33:40.711Z,6.17
2019-06-20T01:36:15.480Z,6.13
2019-06-20T01:38:49.755Z,6.27
2019-06-20T01:41:20.159Z,6.00
2019-06-20T01:43:51.442Z,6.27
2019-06-20T01:46:23.597Z,6.07
2019-06-20T01:49:07.247Z,6.50
2019-06-20T01:51:37.641Z,6.00
2019-06-20T01:54:08.633Z,6.70
2019-06-20T01:56:44.765Z,6.40
2019-06-20T01:59:15.955Z,5.73
2019-06-20T02:01:48.168Z,6.20
2019-06-20T02:04:19.686Z,6.07
2019-06-20T02:06:50.322Z,6.23
2019-06-20T02:09:22.226Z,6.37
2019-06-20T02:11:52.636Z,6.13
2019-06-20T02:14:23.602Z,6.10
2019-06-20T02:16:58.401Z,6.10
2019-06-20T02:19:33.247Z,6.33
2019-06-20T02:22:07.746Z,6.10
2019-06-20T02:24:40.136Z,6.20
2019-06-20T02:27:14.193Z,6.10
2019-06-20T02:29:48.178Z,6.30
2019-06-20T02:32:18.657Z,5.97
2019-06-20T02:34:52.398Z,5.87
2019-06-20T02:37:24.077Z,6.20
2019-06-20T02:39:54.990Z,6.10
2019-06-20T02:42:30.925Z,6.13
2019-06-20T02:45:04.938Z,6.07
2019-06-20T02:47:39.070Z,6.30
2019-06-20T02:50:13.397Z,6.37
2019-06-20T02:52:46.615Z,6.30
2019-06-20T02:55:18.134Z,6.30
2019-06-20T02:57:58.018Z,6.07
2019-06-20T03:01:04.649Z,6.40
2019-06-20T03:03:42.859Z,6.17
2019-06-20T03:06:13.983Z,6.40
2019-06-20T03:08:47.242Z,6.53
2019-06-20T03:11:18.208Z,6.20
2019-06-20T03:13:48.841Z,6.07
2019-06-20T03:16:21.478Z,6.00
2019-06-20T03:18:54.814Z,6.00
2019-06-20T03:21:27.323Z,5.87
2019-06-20T03:23:57.645Z,6.13
2019-06-20T03:26:28.695Z,6.00
2019-06-20T03:28:59.079Z,6.00
2019-06-20T03:31:31.743Z,6.10
2019-06-20T03:34:07.945Z,6.10
2019-06-20T03:36:39.098Z,6.20
2019-06-20T03:39:09.488Z,5.90
2019-06-20T03:41:46.496Z,6.00
2019-06-20T03:44:22.974Z,6.23
2019-06-20T03:46:55.054Z,5.90
2019-06-20T03:49:31.721Z,6.23
2019-06-20T03:52:10.911Z,6.33
2019-06-20T03:54:45.058Z,6.07
2019-06-20T03:57:20.082Z,5.83
2019-06-20T03:59:50.587Z,6.07
2019-06-20T04:02:24.355Z,6.03
2019-06-20T04:04:57.559Z,6.00
2019-06-20T04:07:37.371Z,5.77
2019-06-20T04:10:09.631Z,6.10
2019-06-20T04:12:42.511Z,6.10
2019-06-20T04:15:19.016Z,6.00
2019-06-20T04:17:45.635Z,5.77
2019-06-20T04:20:16.032Z,6.40
2019-06-20T04:22:47.611Z,5.90
2019-06-20T04:25:17.995Z,5.90
2019-06-20T04:27:48.978Z,5.60
2019-06-20T04:30:19.667Z,6.10
2019-06-20T04:32:50.355Z,5.57
2019-06-20T04:35:21.036Z,6.07
2019-06-20T04:37:53.092Z,6.20
2019-06-20T04:40:25.111Z,6.07
2019-06-20T04:42:56.145Z,6.10
2019-06-20T04:45:51.264Z,6.30
2019-06-20T04:48:25.774Z,5.70
2019-06-20T04:50:57.344Z,5.90
2019-06-20T04:53:28.997Z,6.00
2019-06-20T04:56:05.881Z,5.70
2019-06-20T04:58:37.435Z,6.37
2019-06-20T05:01:09.382Z,6.00
2019-06-20T05:03:40.735Z,5.80
2019-06-20T05:06:11.783Z,5.87
2019-06-20T05:08:43.215Z,6.07
2019-06-20T05:11:14.359Z,5.40
2019-06-20T05:13:45.859Z,5.80
2019-06-20T05:16:18.810Z,5.80
2019-06-20T05:18:49.658Z,5.53
2019-06-20T05:21:22.495Z,5.60
2019-06-20T05:23:53.587Z,5.53
2019-06-20T05:26:27.608Z,5.80
2019-06-20T05:28:59.123Z,5.70
2019-06-20T05:31:33.950Z,6.20
2019-06-20T05:34:06.018Z,5.50
2019-06-20T05:36:38.833Z,5.50
2019-06-20T05:39:09.841Z,5.70
2019-06-20T05:41:41.918Z,6.00
2019-06-20T05:44:13.138Z,5.70
2019-06-20T05:46:44.502Z,5.80
2019-06-20T05:49:19.034Z,6.10
2019-06-20T05:51:50.694Z,6.13
2019-06-20T05:54:27.849Z,5.53
2019-06-20T05:57:03.734Z,5.67
2019-06-20T05:59:34.660Z,5.60
2019-06-20T06:02:07.399Z,5.80
2019-06-20T06:04:40.056Z,5.60
2019-06-20T06:07:14.205Z,5.67
2019-06-20T06:09:45.693Z,5.70
2019-06-20T06:12:21.545Z,5.57
2019-06-20T06:14:55.167Z,5.73
2019-06-20T06:17:25.598Z,5.80
2019-06-20T06:19:57.549Z,5.53
2019-06-20T06:22:28.526Z,5.50
2019-06-20T06:25:01.953Z,6.00
2019-06-20T06:27:35.072Z,5.70
2019-06-20T06:30:06.737Z,5.83
2019-06-20T06:32:42.258Z,5.53
2019-06-20T06:35:16.535Z,5.30
2019-06-20T06:37:49.154Z,5.60
2019-06-20T06:40:20.025Z,5.70
2019-06-20T06:42:52.812Z,5.70
2019-06-20T06:45:25.095Z,5.53
2019-06-20T06:47:58.437Z,5.57
2019-06-20T06:50:31.582Z,5.70
2019-06-20T06:53:04.018Z,5.27
2019-06-20T06:55:39.801Z,5.70
2019-06-20T06:58:12.252Z,5.87
2019-06-20T07:00:42.572Z,5.83
2019-06-20T07:03:13.795Z,5.83
2019-06-20T07:05:44.074Z,5.60
2019-06-20T07:08:14.786Z,6.10
2019-06-20T07:10:45.322Z,5.60
2019-06-20T07:13:16.179Z,5.77
2019-06-20T07:15:49.713Z,5.63
2019-06-20T07:18:21.641Z,5.67
2019-06-20T07:20:52.289Z,5.40
2019-06-20T07:23:23.010Z,5.37
2019-06-20T07:25:53.790Z,5.80
2019-06-20T07:28:24.793Z,5.70
2019-06-20T07:30:55.269Z,5.63
2019-06-20T07:33:27.380Z,5.43
2019-06-20T07:35:59.490Z,5.43
2019-06-20T07:38:30.734Z,5.67
2019-06-20T07:41:02.979Z,5.53
2019-06-20T07:43:37.015Z,5.50
2019-06-20T07:46:12.215Z,5.60
2019-06-20T07:48:43.295Z,5.67
2019-06-20T07:51:14.730Z,5.80
2019-06-20T07:53:46.193Z,5.47
2019-06-20T07:56:17.580Z,5.47
2019-06-20T07:58:48.905Z,5.73
2019-06-20T08:01:19.848Z,5.47
2019-06-20T08:03:50.781Z,5.67
2019-06-20T08:06:21.585Z,5.53
2019-06-20T08:08:58.148Z,5.50
2019-06-20T08:11:30.060Z,5.67
2019-06-20T08:14:01.308Z,5.47
2019-06-20T08:16:32.635Z,5.40
2019-06-20T08:19:04.077Z,5.20
2019-06-20T08:21:35.111Z,5.63
2019-06-20T08:24:06.434Z,5.30
2019-06-20T08:26:38.743Z,5.47
2019-06-20T08:29:20.375Z,5.47
2019-06-20T08:31:42.887Z,5.63
2019-06-20T08:34:14.020Z,5.50
2019-06-20T08:36:46.390Z,5.30
2019-06-20T08:39:17.241Z,5.50
2019-06-20T08:41:48.391Z,5.40
2019-06-20T08:44:19.508Z,5.63
2019-06-20T08:46:51.889Z,5.50
2019-06-20T08:49:22.449Z,5.73
2019-06-20T08:51:55.636Z,5.60
2019-06-20T08:54:27.546Z,5.50
2019-06-20T08:56:59.221Z,5.47
2019-06-20T08:59:30.396Z,5.97
2019-06-20T09:04:36.504Z,5.30
2019-06-20T09:07:08.237Z,5.00
2019-06-20T09:09:39.871Z,5.37
2019-06-20T09:12:11.665Z,5.40
2019-06-20T09:14:42.671Z,5.20
2019-06-20T09:17:14.510Z,5.43
2019-06-20T09:19:46.010Z,5.67
2019-06-20T09:22:17.109Z,5.77
2019-06-20T09:24:52.033Z,5.40
2019-06-20T09:27:25.240Z,5.63
2019-06-20T09:29:58.431Z,5.50
2019-06-20T09:32:29.231Z,5.50
2019-06-20T09:35:04.062Z,5.50
2019-06-20T09:37:34.873Z,5.27
2019-06-20T09:40:08.803Z,5.30
2019-06-20T09:42:39.916Z,5.37
2019-06-20T09:45:11.758Z,5.40
2019-06-20T09:47:42.994Z,5.43
2019-06-20T09:50:14.624Z,5.50
2019-06-20T09:52:49.783Z,5.03
2019-06-20T09:55:20.932Z,5.33
2019-06-20T09:57:53.601Z,5.10
2019-06-20T10:00:25.387Z,5.70
2019-06-20T10:02:57.852Z,5.33
2019-06-20T10:05:28.541Z,5.40
2019-06-20T10:08:02.470Z,5.33
2019-06-20T10:10:33.895Z,5.17
2019-06-20T10:13:06.719Z,5.27
2019-06-20T10:15:38.951Z,5.20
2019-06-20T10:18:12.690Z,4.93
2019-06-20T10:20:44.382Z,5.10
2019-06-20T10:23:16.228Z,5.40
2019-06-20T10:25:49.654Z,5.50
2019-06-20T10:28:20.951Z,5.30
2019-06-20T10:30:51.344Z,5.10
2019-06-20T10:33:22.618Z,5.03
2019-06-20T10:35:53.022Z,4.80
2019-06-20T10:38:23.679Z,5.27
2019-06-20T10:40:53.954Z,5.20
2019-06-20T10:43:26.588Z,5.30
2019-06-20T10:45:58.870Z,5.50
2019-06-20T10:48:30.099Z,5.47
2019-06-20T10:51:38.723Z,5.30
2019-06-20T10:54:09.539Z,5.33
2019-06-20T10:56:40.442Z,5.20
2019-06-20T10:59:13.073Z,5.47
2019-06-20T11:01:44.368Z,5.00
2019-06-20T11:04:15.618Z,5.10
2019-06-20T11:06:47.522Z,5.30
2019-06-20T11:09:19.182Z,5.10
2019-06-20T11:11:52.612Z,5.27
2019-06-20T11:14:23.931Z,5.40
2019-06-20T11:16:54.311Z,5.23
2019-06-20T11:19:27.019Z,5.40
2019-06-20T11:21:57.738Z,5.07
2019-06-20T11:24:28.566Z,5.40
2019-06-20T11:27:01.666Z,5.40
2019-06-20T11:29:35.105Z,4.93
2019-06-20T11:32:05.487Z,4.90
2019-06-20T11:34:37.802Z,5.40
2019-06-20T11:37:12.005Z,5.23
2019-06-20T11:39:47.434Z,5.30
2019-06-20T11:42:19.442Z,5.40
2019-06-20T11:44:51.809Z,5.17
2019-06-20T11:47:25.553Z,5.10
2019-06-20T11:49:56.858Z,5.47
2019-06-20T11:52:27.232Z,5.10
2019-06-20T11:55:03.114Z,5.27
2019-06-20T11:57:33.819Z,5.17
2019-06-20T12:00:06.344Z,5.20
2019-06-20T12:02:40.519Z,5.30
2019-06-20T12:05:10.991Z,5.00
2019-06-20T12:07:43.529Z,5.17
2019-06-20T12:10:15.034Z,5.10
2019-06-20T12:12:46.767Z,4.87
2019-06-20T12:15:19.945Z,5.17
2019-06-20T12:17:50.412Z,5.00
2019-06-20T12:20:23.465Z,5.00
2019-06-20T12:22:56.103Z,5.17
2019-06-20T12:25:27.018Z,5.27
2019-06-20T12:27:59.633Z,5.37
2019-06-20T12:30:30.461Z,5.20
2019-06-20T12:33:00.870Z,5.13
2019-06-20T12:35:35.519Z,5.10
2019-06-20T12:38:05.939Z,5.47
2019-06-20T12:40:39.093Z,5.13
2019-06-20T12:43:09.156Z,5.27
2019-06-20T12:45:41.286Z,4.70
2019-06-20T12:48:12.351Z,5.13
2019-06-20T12:50:47.607Z,5.30
2019-06-20T12:53:18.372Z,5.10
2019-06-20T12:55:50.785Z,5.23
2019-06-20T12:58:21.534Z,5.17
2019-06-20T13:00:53.129Z,4.67
2019-06-20T13:03:23.526Z,5.23
2019-06-20T13:05:54.794Z,5.37
2019-06-20T13:08:25.210Z,5.13
2019-06-20T13:10:55.934Z,5.13
2019-06-20T13:13:26.554Z,5.17
2019-06-20T13:15:57.134Z,4.77
2019-06-20T13:18:27.623Z,4.97
2019-06-20T13:20:58.902Z,4.83
2019-06-20T13:23:29.292Z,5.00
2019-06-20T13:26:00.009Z,5.23
2019-06-20T13:28:30.687Z,4.80
2019-06-20T13:31:02.871Z,5.23
2019-06-20T13:33:33.254Z,4.63
2019-06-20T13:36:04.538Z,4.90
2019-06-20T13:38:34.967Z,5.10
2019-06-20T13:41:06.198Z,5.27
2019-06-20T13:43:36.619Z,4.67
2019-06-20T13:46:07.875Z,5.00
2019-06-20T13:48:38.900Z,4.80
2019-06-20T13:51:10.551Z,4.87
2019-06-20T13:53:42.668Z,4.77
2019-06-20T13:56:14.319Z,4.80
2019-06-20T13:58:44.841Z,4.70
2019-06-20T14:01:16.283Z,5.10
2019-06-20T14:03:46.996Z,5.20
2019-06-20T14:06:18.556Z,5.10
2019-06-20T14:08:50.253Z,4.90
2019-06-20T14:11:20.757Z,4.70
2019-06-20T14:13:53.040Z,4.87
2019-06-20T14:16:23.698Z,4.90
2019-06-20T14:18:54.146Z,4.90
2019-06-20T14:21:24.980Z,4.90
2019-06-20T14:23:56.687Z,5.10
2019-06-20T14:26:28.182Z,5.00
2019-06-20T14:28:59.691Z,4.80
2019-06-20T14:31:31.648Z,4.87
2019-06-20T14:34:02.258Z,4.80
2019-06-20T14:36:34.086Z,4.80
2019-06-20T14:39:05.860Z,4.83
2019-06-20T14:41:36.590Z,4.93
2019-06-20T14:44:06.984Z,5.27
2019-06-20T14:46:38.393Z,4.60
2019-06-20T14:49:08.905Z,4.90
2019-06-20T14:51:43.824Z,5.03
2019-06-20T14:54:15.693Z,4.87
2019-06-20T14:56:47.850Z,4.80
2019-06-20T14:59:18.586Z,4.70
2019-06-20T15:01:52.566Z,4.80
2019-06-20T15:04:23.322Z,4.83
2019-06-20T15:06:54.748Z,4.87
2019-06-20T15:09:25.687Z,4.50
2019-06-20T15:11:56.908Z,4.63
2019-06-20T15:14:27.605Z,4.90
2019-06-20T15:16:58.601Z,4.50
2019-06-20T15:19:28.971Z,4.70
2019-06-20T15:22:03.026Z,4.63
2019-06-20T15:24:33.429Z,4.53
2019-06-20T15:27:04.793Z,4.70
2019-06-20T15:29:35.168Z,4.93
2019-06-20T15:32:06.103Z,4.93
2019-06-20T15:34:38.863Z,4.70
2019-06-20T15:37:09.808Z,4.73
2019-06-20T15:39:40.573Z,5.00
2019-06-20T15:42:11.553Z,4.80
2019-06-20T15:44:41.936Z,4.70
2019-06-20T15:47:13.258Z,4.50
2019-06-20T15:49:43.616Z,4.90
2019-06-20T15:52:14.928Z,4.47
2019-06-20T15:54:45.286Z,4.60
2019-06-20T15:57:16.580Z,4.70
2019-06-20T15:59:47.119Z,4.50
2019-06-20T16:02:18.590Z,5.10
2019-06-20T16:04:50.170Z,4.67
2019-06-20T16:07:21.757Z,4.77
2019-06-20T16:09:52.156Z,4.47
2019-06-20T16:12:22.972Z,4.70
2019-06-20T16:14:53.507Z,4.80
2019-06-20T16:17:25.442Z,4.70
2019-06-20T16:19:55.798Z,4.90
2019-06-20T16:22:26.758Z,4.77
2019-06-20T16:24:57.176Z,4.90
2019-06-20T16:27:29.412Z,4.60
2019-06-20T16:30:00.110Z,4.40
2019-06-20T16:32:31.021Z,4.50
2019-06-20T16:35:01.741Z,4.70
2019-06-20T16:37:32.579Z,4.43
2019-06-20T16:40:03.259Z,4.50
2019-06-20T16:42:33.930Z,4.70
2019-06-20T16:45:05.188Z,4.90
2019-06-20T16:47:35.779Z,4.50
2019-06-20T16:50:07.847Z,4.70
2019-06-20T16:52:38.486Z,4.70
2019-06-20T16:55:10.423Z,4.33
2019-06-20T16:57:44.103Z,4.70
2019-06-20T17:00:17.011Z,4.50
2019-06-20T17:02:48.465Z,4.77
2019-06-20T17:05:21.719Z,4.73
2019-06-20T17:07:54.618Z,4.40
2019-06-20T17:10:25.920Z,4.67
2019-06-20T17:12:56.922Z,4.57
2019-06-20T17:15:31.401Z,4.63
2019-06-20T17:18:02.681Z,4.60
2019-06-20T17:20:33.870Z,4.60
2019-06-20T17:23:05.446Z,4.33
2019-06-20T17:25:36.844Z,4.80
2019-06-20T17:28:10.649Z,4.53
2019-06-20T17:30:43.623Z,4.60
2019-06-20T17:33:15.214Z,4.63
2019-06-20T17:35:49.914Z,4.57
2019-06-20T17:38:20.989Z,4.60
2019-06-20T17:40:53.353Z,4.27
2019-06-20T17:43:24.460Z,4.50
2019-06-20T17:45:56.331Z,4.57
2019-06-20T17:48:31.147Z,4.30
2019-06-20T17:51:02.321Z,4.60
2019-06-20T17:53:33.554Z,4.63
2019-06-20T17:56:05.506Z,4.60
2019-06-20T17:58:36.796Z,4.37
2019-06-20T18:01:08.032Z,4.60
2019-06-20T18:03:38.945Z,4.40
2019-06-20T18:06:10.055Z,4.70
2019-06-20T18:08:42.138Z,4.50
2019-06-20T18:11:13.942Z,4.50
2019-06-20T18:13:45.674Z,4.70
2019-06-20T18:16:25.183Z,4.37
2019-06-20T18:18:54.419Z,4.37
2019-06-20T18:21:25.870Z,4.23
2019-06-20T18:23:57.691Z,4.50
2019-06-20T18:26:29.570Z,4.47
2019-06-20T18:29:01.545Z,4.33
2019-06-20T18:31:33.805Z,4.37
2019-06-20T18:34:04.947Z,4.50
2019-06-20T18:36:37.315Z,4.50
2019-06-20T18:39:11.535Z,4.40
2019-06-20T18:41:47.675Z,4.30
2019-06-20T18:44:19.043Z,4.40
2019-06-20T18:46:50.207Z,4.53
2019-06-20T18:49:21.326Z,4.70
2019-06-20T18:51:53.105Z,4.40
2019-06-20T18:54:23.959Z,4.30
2019-06-20T18:56:55.991Z,4.83
2019-06-20T18:59:33.519Z,4.43
2019-06-20T19:02:04.773Z,4.17
2019-06-20T19:04:46.241Z,4.40
2019-06-20T19:07:10.720Z,4.30
2019-06-20T19:09:41.144Z,4.80
2019-06-20T19:12:11.865Z,4.40
2019-06-20T19:14:42.450Z,4.23
2019-06-20T19:17:14.817Z,4.23
2019-06-20T19:19:45.702Z,4.47
2019-06-20T19:22:17.939Z,4.27
2019-06-20T19:24:50.082Z,4.63
2019-06-20T19:27:21.427Z,4.27
2019-06-20T19:29:51.795Z,4.50
2019-06-20T19:32:22.707Z,4.10
2019-06-20T19:35:02.175Z,4.67
2019-06-20T19:37:32.039Z,4.60
2019-06-20T19:40:02.672Z,4.53
2019-06-20T19:42:33.732Z,4.30
2019-06-20T19:45:06.320Z,4.30
2019-06-20T19:47:37.603Z,4.17
2019-06-20T19:50:08.666Z,4.47
2019-06-20T19:52:40.106Z,4.20
2019-06-20T19:55:11.574Z,4.27
2019-06-20T19:57:43.100Z,4.60
2019-06-20T20:00:15.090Z,4.40
2019-06-20T20:02:48.154Z,4.33
2019-06-20T20:05:20.202Z,4.23
2019-06-20T20:07:52.596Z,4.50
2019-06-20T20:10:34.483Z,4.40
2019-06-20T20:13:05.643Z,4.33
2019-06-20T20:15:36.638Z,4.70
2019-06-20T20:18:08.569Z,4.43
2019-06-20T20:20:40.725Z,4.30
2019-06-20T20:23:12.311Z,4.47
2019-06-20T20:25:43.515Z,4.20
2019-06-20T20:28:15.003Z,4.37
2019-06-20T20:30:45.921Z,4.53
2019-06-20T20:33:16.994Z,4.07
2019-06-20T20:35:47.830Z,4.20
2019-06-20T20:38:19.107Z,4.27
2019-06-20T20:40:49.618Z,4.10
2019-06-20T20:43:22.104Z,4.37
2019-06-20T20:45:55.223Z,4.03
2019-06-20T20:48:26.565Z,4.17
2019-06-20T20:50:57.064Z,4.47
2019-06-20T20:53:28.245Z,4.00
2019-06-20T20:56:01.597Z,4.20
2019-06-20T20:58:35.699Z,4.03
2019-06-20T21:01:15.799Z,4.20
2019-06-20T21:03:46.524Z,4.00
2019-06-20T21:06:25.331Z,4.07
2019-06-20T21:09:00.411Z,4.10
2019-06-20T21:11:31.698Z,4.27
2019-06-20T21:14:11.950Z,4.37
2019-06-20T21:16:46.800Z,4.10
2019-06-20T21:19:37.110Z,4.13
2019-06-20T21:22:09.886Z,4.10
2019-06-20T21:24:41.467Z,4.00
2019-06-20T21:27:13.465Z,4.10
2019-06-20T21:29:44.230Z,3.90
2019-06-20T21:32:14.963Z,4.30
2019-06-20T21:34:46.004Z,4.13
2019-06-20T21:37:16.997Z,4.30
2019-06-20T21:39:49.034Z,4.00
2019-06-20T21:42:22.154Z,4.00
2019-06-20T21:45:02.064Z,4.20
2019-06-20T21:47:32.518Z,4.10
2019-06-20T21:50:10.204Z,4.00
2019-06-20T21:52:40.707Z,3.97
2019-06-20T21:55:17.692Z,4.10
2019-06-20T21:57:51.411Z,3.77
2019-06-20T22:00:27.902Z,4.07
2019-06-20T22:03:02.188Z,4.17
2019-06-20T22:05:40.406Z,4.40
2019-06-20T22:08:11.794Z,4.10
2019-06-20T22:10:42.096Z,4.30
2019-06-20T22:13:19.713Z,4.20
2019-06-20T22:15:52.345Z,4.10
2019-06-20T22:18:25.780Z,4.03
2019-06-20T22:20:56.346Z,4.03
2019-06-20T22:23:27.311Z,4.03
2019-06-20T22:25:59.085Z,4.40
2019-06-20T22:28:29.499Z,4.10
2019-06-20T22:31:00.742Z,4.20
2019-06-20T22:33:31.119Z,4.03
2019-06-20T22:36:05.726Z,4.20
2019-06-20T22:38:41.559Z,4.00
2019-06-20T22:41:11.952Z,4.00
2019-06-20T22:43:43.424Z,3.77
2019-06-20T22:46:18.662Z,4.30
2019-06-20T22:48:50.896Z,4.20
2019-06-20T22:51:25.629Z,4.10
2019-06-20T22:54:00.456Z,3.93
2019-06-20T22:56:31.536Z,4.03
2019-06-20T22:59:05.759Z,4.03
2019-06-20T23:01:41.187Z,4.03
2019-06-20T23:04:14.482Z,4.07
2019-06-20T23:06:55.961Z,4.20
2019-06-20T23:09:28.549Z,4.10
2019-06-20T23:12:01.107Z,4.00
2019-06-20T23:14:32.575Z,4.10
2019-06-20T23:17:02.854Z,4.00
2019-06-20T23:19:34.595Z,3.97
2019-06-20T23:22:08.039Z,4.00
2019-06-20T23:24:39.302Z,3.63
2019-06-20T23:27:09.696Z,3.60
2019-06-20T23:29:42.508Z,3.87
2019-06-20T23:32:15.051Z,4.10
2019-06-20T23:34:46.039Z,4.03
2019-06-20T23:37:16.419Z,3.80
2019-06-20T23:39:49.964Z,3.90
2019-06-20T23:42:20.575Z,3.83
2019-06-20T23:44:54.035Z,4.00
2019-06-20T23:47:25.957Z,3.93
2019-06-20T23:49:57.023Z,3.70
2019-06-20T23:52:30.407Z,3.80
2019-06-20T23:55:01.935Z,3.90
2019-06-20T23:57:35.344Z,3.90
